sensor_id;sensor_type;location;lat;lon;timestamp;P1;durP1;ratioP1;P2;durP2;ratioP2
16957;SDS011;8595;52.542;11.974;2022-09-01T00:01:45;3.63;;;1.80;;
16957;SDS011;8595;52.542;11.974;2022-09-01T00:04:15;2.95;;;1.40;;
16957;SDS011;8595;52.542;11.974;2022-09-01T00:06:43;1.95;;;1.30;;
16957;SDS011;8595;52.542;11.974;2022-09-01T00:09:11;2.05;;;1.40;;
16957;SDS011;8595;52.542;11.974;2022-09-01T00:11:42;4.13;;;1.70;;
16957;SDS011;8595;52.542;11.974;2022-09-01T00:14:11;2.33;;;1.40;;
16957;SDS011;8595;52.542;11.974;2022-09-01T00:16:40;2.22;;;1.63;;
16957;SDS011;8595;52.542;11.974;2022-09-01T00:19:06;3.70;;;1.45;;
16957;SDS011;8595;52.542;11.974;2022-09-01T00:21:34;3.80;;;1.52;;
16957;SDS011;8595;52.542;11.974;2022-09-01T00:24:03;2.55;;;1.25;;
16957;SDS011;8595;52.542;11.974;2022-09-01T00:26:30;2.10;;;1.40;;
16957;SDS011;8595;52.542;11.974;2022-09-01T00:28:57;2.30;;;1.60;;
16957;SDS011;8595;52.542;11.974;2022-09-01T00:31:26;2.95;;;1.45;;
16957;SDS011;8595;52.542;11.974;2022-09-01T00:33:53;4.10;;;1.70;;
16957;SDS011;8595;52.542;11.974;2022-09-01T00:36:20;3.72;;;1.40;;
16957;SDS011;8595;52.542;11.974;2022-09-01T00:38:48;2.92;;;1.55;;
16957;SDS011;8595;52.542;11.974;2022-09-01T00:41:16;2.53;;;1.60;;
16957;SDS011;8595;52.542;11.974;2022-09-01T00:43:45;3.72;;;1.50;;
16957;SDS011;8595;52.542;11.974;2022-09-01T00:46:14;1.90;;;1.48;;
16957;SDS011;8595;52.542;11.974;2022-09-01T00:48:43;1.48;;;1.30;;
16957;SDS011;8595;52.542;11.974;2022-09-01T00:51:11;1.92;;;1.80;;
16957;SDS011;8595;52.542;11.974;2022-09-01T00:53:38;1.67;;;1.27;;
16957;SDS011;8595;52.542;11.974;2022-09-01T00:56:08;1.83;;;1.52;;
16957;SDS011;8595;52.542;11.974;2022-09-01T00:58:35;2.63;;;1.60;;
16957;SDS011;8595;52.542;11.974;2022-09-01T01:01:03;1.50;;;1.40;;
16957;SDS011;8595;52.542;11.974;2022-09-01T01:03:31;2.72;;;1.65;;
16957;SDS011;8595;52.542;11.974;2022-09-01T01:06:00;2.53;;;1.60;;
16957;SDS011;8595;52.542;11.974;2022-09-01T01:08:32;1.30;;;1.20;;
16957;SDS011;8595;52.542;11.974;2022-09-01T01:11:01;4.95;;;1.58;;
16957;SDS011;8595;52.542;11.974;2022-09-01T01:13:29;3.65;;;1.30;;
16957;SDS011;8595;52.542;11.974;2022-09-01T01:16:00;1.85;;;1.50;;
16957;SDS011;8595;52.542;11.974;2022-09-01T01:18:27;4.15;;;1.70;;
16957;SDS011;8595;52.542;11.974;2022-09-01T01:20:57;3.03;;;1.50;;
16957;SDS011;8595;52.542;11.974;2022-09-01T01:23:47;3.00;;;1.73;;
16957;SDS011;8595;52.542;11.974;2022-09-01T01:26:23;2.38;;;1.30;;
16957;SDS011;8595;52.542;11.974;2022-09-01T01:28:50;2.88;;;1.83;;
16957;SDS011;8595;52.542;11.974;2022-09-01T01:31:18;7.20;;;1.50;;
16957;SDS011;8595;52.542;11.974;2022-09-01T01:33:47;2.03;;;1.67;;
16957;SDS011;8595;52.542;11.974;2022-09-01T01:36:17;4.38;;;1.45;;
16957;SDS011;8595;52.542;11.974;2022-09-01T01:38:51;5.57;;;1.27;;
16957;SDS011;8595;52.542;11.974;2022-09-01T01:41:19;1.48;;;1.38;;
16957;SDS011;8595;52.542;11.974;2022-09-01T01:43:49;2.17;;;1.17;;
16957;SDS011;8595;52.542;11.974;2022-09-01T01:46:16;2.42;;;1.50;;
16957;SDS011;8595;52.542;11.974;2022-09-01T01:48:43;1.80;;;1.38;;
16957;SDS011;8595;52.542;11.974;2022-09-01T01:51:11;2.35;;;1.38;;
16957;SDS011;8595;52.542;11.974;2022-09-01T01:53:38;1.98;;;1.42;;
16957;SDS011;8595;52.542;11.974;2022-09-01T01:56:05;1.90;;;1.33;;
16957;SDS011;8595;52.542;11.974;2022-09-01T01:58:33;1.63;;;1.50;;
16957;SDS011;8595;52.542;11.974;2022-09-01T02:01:01;2.88;;;1.40;;
16957;SDS011;8595;52.542;11.974;2022-09-01T02:03:30;4.32;;;1.75;;
16957;SDS011;8595;52.542;11.974;2022-09-01T02:06:02;2.03;;;1.40;;
16957;SDS011;8595;52.542;11.974;2022-09-01T02:08:32;1.98;;;1.35;;
16957;SDS011;8595;52.542;11.974;2022-09-01T02:11:00;4.22;;;1.65;;
16957;SDS011;8595;52.542;11.974;2022-09-01T02:13:27;1.60;;;1.40;;
16957;SDS011;8595;52.542;11.974;2022-09-01T02:15:56;3.78;;;1.80;;
16957;SDS011;8595;52.542;11.974;2022-09-01T02:18:27;2.35;;;1.40;;
16957;SDS011;8595;52.542;11.974;2022-09-01T02:20:58;1.85;;;1.30;;
16957;SDS011;8595;52.542;11.974;2022-09-01T02:23:25;1.80;;;1.70;;
16957;SDS011;8595;52.542;11.974;2022-09-01T02:25:55;1.95;;;1.65;;
16957;SDS011;8595;52.542;11.974;2022-09-01T02:28:24;2.45;;;1.63;;
16957;SDS011;8595;52.542;11.974;2022-09-01T02:30:52;3.13;;;1.75;;
16957;SDS011;8595;52.542;11.974;2022-09-01T02:33:21;1.67;;;1.48;;
16957;SDS011;8595;52.542;11.974;2022-09-01T02:35:51;3.58;;;1.60;;
16957;SDS011;8595;52.542;11.974;2022-09-01T02:38:20;2.80;;;2.10;;
16957;SDS011;8595;52.542;11.974;2022-09-01T02:40:51;4.07;;;2.03;;
16957;SDS011;8595;52.542;11.974;2022-09-01T02:43:18;1.63;;;1.52;;
16957;SDS011;8595;52.542;11.974;2022-09-01T02:45:46;4.85;;;1.50;;
16957;SDS011;8595;52.542;11.974;2022-09-01T02:48:16;2.13;;;1.80;;
16957;SDS011;8595;52.542;11.974;2022-09-01T02:50:46;2.95;;;1.42;;
16957;SDS011;8595;52.542;11.974;2022-09-01T02:53:14;1.73;;;1.52;;
16957;SDS011;8595;52.542;11.974;2022-09-01T02:55:41;3.10;;;1.80;;
16957;SDS011;8595;52.542;11.974;2022-09-01T02:58:09;2.10;;;1.38;;
16957;SDS011;8595;52.542;11.974;2022-09-01T03:00:40;1.65;;;1.55;;
16957;SDS011;8595;52.542;11.974;2022-09-01T03:03:07;1.70;;;1.60;;
16957;SDS011;8595;52.542;11.974;2022-09-01T03:05:37;6.63;;;1.45;;
16957;SDS011;8595;52.542;11.974;2022-09-01T03:08:06;2.45;;;1.65;;
16957;SDS011;8595;52.542;11.974;2022-09-01T03:10:37;1.73;;;1.35;;
16957;SDS011;8595;52.542;11.974;2022-09-01T03:13:06;2.22;;;1.50;;
16957;SDS011;8595;52.542;11.974;2022-09-01T03:15:35;2.50;;;1.83;;
16957;SDS011;8595;52.542;11.974;2022-09-01T03:18:03;2.65;;;1.55;;
16957;SDS011;8595;52.542;11.974;2022-09-01T03:20:31;2.05;;;1.58;;
16957;SDS011;8595;52.542;11.974;2022-09-01T03:23:00;3.58;;;1.58;;
16957;SDS011;8595;52.542;11.974;2022-09-01T03:25:29;2.33;;;1.52;;
16957;SDS011;8595;52.542;11.974;2022-09-01T03:27:57;1.60;;;1.42;;
16957;SDS011;8595;52.542;11.974;2022-09-01T03:30:25;1.55;;;1.40;;
16957;SDS011;8595;52.542;11.974;2022-09-01T03:32:54;3.47;;;1.60;;
16957;SDS011;8595;52.542;11.974;2022-09-01T03:35:20;1.58;;;1.48;;
16957;SDS011;8595;52.542;11.974;2022-09-01T03:37:47;1.70;;;1.52;;
16957;SDS011;8595;52.542;11.974;2022-09-01T03:40:15;4.00;;;1.48;;
16957;SDS011;8595;52.542;11.974;2022-09-01T03:42:42;2.10;;;1.52;;
16957;SDS011;8595;52.542;11.974;2022-09-01T03:45:11;1.92;;;1.50;;
16957;SDS011;8595;52.542;11.974;2022-09-01T03:47:40;1.63;;;1.50;;
16957;SDS011;8595;52.542;11.974;2022-09-01T03:50:10;2.33;;;1.50;;
16957;SDS011;8595;52.542;11.974;2022-09-01T03:52:44;3.45;;;1.55;;
16957;SDS011;8595;52.542;11.974;2022-09-01T03:55:13;1.52;;;1.30;;
16957;SDS011;8595;52.542;11.974;2022-09-01T03:57:42;2.15;;;1.60;;
16957;SDS011;8595;52.542;11.974;2022-09-01T04:00:13;1.50;;;1.33;;
16957;SDS011;8595;52.542;11.974;2022-09-01T04:02:45;1.60;;;1.50;;
16957;SDS011;8595;52.542;11.974;2022-09-01T04:05:14;2.80;;;1.30;;
16957;SDS011;8595;52.542;11.974;2022-09-01T04:07:41;1.90;;;1.30;;
16957;SDS011;8595;52.542;11.974;2022-09-01T04:10:09;1.65;;;1.50;;
16957;SDS011;8595;52.542;11.974;2022-09-01T04:12:36;2.72;;;1.20;;
16957;SDS011;8595;52.542;11.974;2022-09-01T04:15:04;4.53;;;1.55;;
16957;SDS011;8595;52.542;11.974;2022-09-01T04:17:33;2.25;;;1.70;;
16957;SDS011;8595;52.542;11.974;2022-09-01T04:20:17;2.47;;;1.27;;
16957;SDS011;8595;52.542;11.974;2022-09-01T04:22:46;3.55;;;1.52;;
16957;SDS011;8595;52.542;11.974;2022-09-01T04:25:14;2.13;;;1.38;;
16957;SDS011;8595;52.542;11.974;2022-09-01T04:27:42;1.30;;;1.20;;
16957;SDS011;8595;52.542;11.974;2022-09-01T04:30:11;2.65;;;1.40;;
16957;SDS011;8595;52.542;11.974;2022-09-01T04:32:39;1.42;;;1.20;;
16957;SDS011;8595;52.542;11.974;2022-09-01T04:35:08;1.60;;;1.30;;
16957;SDS011;8595;52.542;11.974;2022-09-01T04:37:41;4.93;;;1.85;;
16957;SDS011;8595;52.542;11.974;2022-09-01T04:40:08;3.83;;;1.45;;
16957;SDS011;8595;52.542;11.974;2022-09-01T04:42:36;2.47;;;1.50;;
16957;SDS011;8595;52.542;11.974;2022-09-01T04:45:04;2.40;;;1.20;;
16957;SDS011;8595;52.542;11.974;2022-09-01T04:47:35;5.88;;;1.92;;
16957;SDS011;8595;52.542;11.974;2022-09-01T04:50:08;2.60;;;1.55;;
16957;SDS011;8595;52.542;11.974;2022-09-01T04:52:38;7.45;;;1.52;;
16957;SDS011;8595;52.542;11.974;2022-09-01T04:55:06;5.82;;;2.15;;
16957;SDS011;8595;52.542;11.974;2022-09-01T04:57:41;1.77;;;1.50;;
16957;SDS011;8595;52.542;11.974;2022-09-01T05:00:12;2.35;;;1.88;;
16957;SDS011;8595;52.542;11.974;2022-09-01T05:02:46;2.55;;;1.90;;
16957;SDS011;8595;52.542;11.974;2022-09-01T05:05:17;4.88;;;1.90;;
16957;SDS011;8595;52.542;11.974;2022-09-01T05:07:45;2.50;;;1.70;;
16957;SDS011;8595;52.542;11.974;2022-09-01T05:10:16;3.00;;;2.05;;
16957;SDS011;8595;52.542;11.974;2022-09-01T05:12:43;3.00;;;1.88;;
16957;SDS011;8595;52.542;11.974;2022-09-01T05:15:10;3.65;;;2.00;;
16957;SDS011;8595;52.542;11.974;2022-09-01T05:17:38;1.92;;;1.73;;
16957;SDS011;8595;52.542;11.974;2022-09-01T05:20:07;2.50;;;2.20;;
16957;SDS011;8595;52.542;11.974;2022-09-01T05:22:37;3.28;;;1.85;;
16957;SDS011;8595;52.542;11.974;2022-09-01T05:25:05;2.70;;;2.05;;
16957;SDS011;8595;52.542;11.974;2022-09-01T05:27:38;2.05;;;1.75;;
16957;SDS011;8595;52.542;11.974;2022-09-01T05:30:08;2.83;;;1.50;;
16957;SDS011;8595;52.542;11.974;2022-09-01T05:32:35;2.63;;;1.80;;
16957;SDS011;8595;52.542;11.974;2022-09-01T05:35:04;4.63;;;1.85;;
16957;SDS011;8595;52.542;11.974;2022-09-01T05:37:32;1.88;;;1.45;;
16957;SDS011;8595;52.542;11.974;2022-09-01T05:40:01;1.58;;;1.48;;
16957;SDS011;8595;52.542;11.974;2022-09-01T05:42:28;5.35;;;1.95;;
16957;SDS011;8595;52.542;11.974;2022-09-01T05:44:56;2.03;;;1.40;;
16957;SDS011;8595;52.542;11.974;2022-09-01T05:47:24;6.97;;;1.60;;
16957;SDS011;8595;52.542;11.974;2022-09-01T05:49:51;2.88;;;1.65;;
16957;SDS011;8595;52.542;11.974;2022-09-01T05:52:19;3.45;;;1.67;;
16957;SDS011;8595;52.542;11.974;2022-09-01T05:54:50;2.40;;;1.42;;
16957;SDS011;8595;52.542;11.974;2022-09-01T05:57:18;4.70;;;1.58;;
16957;SDS011;8595;52.542;11.974;2022-09-01T05:59:45;2.58;;;1.88;;
16957;SDS011;8595;52.542;11.974;2022-09-01T06:02:17;2.33;;;1.60;;
16957;SDS011;8595;52.542;11.974;2022-09-01T06:04:45;4.78;;;1.50;;
16957;SDS011;8595;52.542;11.974;2022-09-01T06:07:13;2.85;;;1.52;;
16957;SDS011;8595;52.542;11.974;2022-09-01T06:09:40;4.38;;;1.75;;
16957;SDS011;8595;52.542;11.974;2022-09-01T06:12:09;4.88;;;1.60;;
16957;SDS011;8595;52.542;11.974;2022-09-01T06:14:42;3.50;;;1.02;;
16957;SDS011;8595;52.542;11.974;2022-09-01T06:17:10;2.80;;;1.67;;
16957;SDS011;8595;52.542;11.974;2022-09-01T06:19:40;2.28;;;1.75;;
16957;SDS011;8595;52.542;11.974;2022-09-01T06:22:06;1.85;;;1.60;;
16957;SDS011;8595;52.542;11.974;2022-09-01T06:24:34;4.20;;;1.95;;
16957;SDS011;8595;52.542;11.974;2022-09-01T06:27:03;4.80;;;1.50;;
16957;SDS011;8595;52.542;11.974;2022-09-01T06:29:31;3.58;;;1.80;;
16957;SDS011;8595;52.542;11.974;2022-09-01T06:31:59;3.25;;;1.92;;
16957;SDS011;8595;52.542;11.974;2022-09-01T06:34:26;2.13;;;1.92;;
16957;SDS011;8595;52.542;11.974;2022-09-01T06:36:53;2.20;;;2.00;;
16957;SDS011;8595;52.542;11.974;2022-09-01T06:39:20;9.15;;;2.15;;
16957;SDS011;8595;52.542;11.974;2022-09-01T06:41:48;7.18;;;2.15;;
16957;SDS011;8595;52.542;11.974;2022-09-01T06:44:16;2.22;;;1.90;;
16957;SDS011;8595;52.542;11.974;2022-09-01T06:46:46;2.03;;;1.60;;
16957;SDS011;8595;52.542;11.974;2022-09-01T06:49:14;4.07;;;1.63;;
16957;SDS011;8595;52.542;11.974;2022-09-01T06:51:41;3.08;;;1.55;;
16957;SDS011;8595;52.542;11.974;2022-09-01T06:54:07;4.60;;;1.75;;
16957;SDS011;8595;52.542;11.974;2022-09-01T06:56:38;2.40;;;1.70;;
16957;SDS011;8595;52.542;11.974;2022-09-01T06:59:05;4.40;;;1.92;;
16957;SDS011;8595;52.542;11.974;2022-09-01T07:01:32;3.28;;;1.85;;
16957;SDS011;8595;52.542;11.974;2022-09-01T07:04:00;2.45;;;1.88;;
16957;SDS011;8595;52.542;11.974;2022-09-01T07:06:28;1.20;;;1.10;;
16957;SDS011;8595;52.542;11.974;2022-09-01T07:08:56;1.63;;;1.50;;
16957;SDS011;8595;52.542;11.974;2022-09-01T07:11:26;1.95;;;1.40;;
16957;SDS011;8595;52.542;11.974;2022-09-01T07:13:55;3.20;;;1.30;;
16957;SDS011;8595;52.542;11.974;2022-09-01T07:16:26;1.73;;;1.40;;
16957;SDS011;8595;52.542;11.974;2022-09-01T07:18:55;2.10;;;1.50;;
16957;SDS011;8595;52.542;11.974;2022-09-01T07:21:24;2.30;;;1.35;;
16957;SDS011;8595;52.542;11.974;2022-09-01T07:23:54;4.10;;;1.58;;
16957;SDS011;8595;52.542;11.974;2022-09-01T07:26:21;2.70;;;1.17;;
16957;SDS011;8595;52.542;11.974;2022-09-01T07:28:49;1.75;;;1.10;;
16957;SDS011;8595;52.542;11.974;2022-09-01T07:31:17;2.38;;;1.30;;
16957;SDS011;8595;52.542;11.974;2022-09-01T07:33:45;2.15;;;1.40;;
16957;SDS011;8595;52.542;11.974;2022-09-01T07:36:13;1.88;;;1.10;;
16957;SDS011;8595;52.542;11.974;2022-09-01T07:38:40;2.80;;;1.15;;
16957;SDS011;8595;52.542;11.974;2022-09-01T07:41:09;1.33;;;1.00;;
16957;SDS011;8595;52.542;11.974;2022-09-01T07:43:37;5.78;;;1.10;;
16957;SDS011;8595;52.542;11.974;2022-09-01T07:46:08;1.48;;;1.20;;
16957;SDS011;8595;52.542;11.974;2022-09-01T07:48:36;1.60;;;1.00;;
16957;SDS011;8595;52.542;11.974;2022-09-01T07:51:03;2.05;;;1.45;;
16957;SDS011;8595;52.542;11.974;2022-09-01T07:53:32;3.30;;;1.20;;
16957;SDS011;8595;52.542;11.974;2022-09-01T07:56:04;1.80;;;1.55;;
16957;SDS011;8595;52.542;11.974;2022-09-01T07:58:35;3.42;;;1.40;;
16957;SDS011;8595;52.542;11.974;2022-09-01T08:01:05;4.53;;;1.40;;
16957;SDS011;8595;52.542;11.974;2022-09-01T08:03:32;2.13;;;1.10;;
16957;SDS011;8595;52.542;11.974;2022-09-01T08:06:01;2.13;;;0.95;;
16957;SDS011;8595;52.542;11.974;2022-09-01T08:08:30;3.08;;;1.23;;
16957;SDS011;8595;52.542;11.974;2022-09-01T08:10:57;2.80;;;0.65;;
16957;SDS011;8595;52.542;11.974;2022-09-01T08:13:24;2.88;;;1.10;;
16957;SDS011;8595;52.542;11.974;2022-09-01T08:15:52;3.28;;;1.15;;
16957;SDS011;8595;52.542;11.974;2022-09-01T08:18:19;2.13;;;1.48;;
16957;SDS011;8595;52.542;11.974;2022-09-01T08:20:47;4.03;;;1.13;;
16957;SDS011;8595;52.542;11.974;2022-09-01T08:23:14;1.33;;;1.20;;
16957;SDS011;8595;52.542;11.974;2022-09-01T08:25:43;2.95;;;1.13;;
16957;SDS011;8595;52.542;11.974;2022-09-01T08:28:12;1.27;;;0.80;;
16957;SDS011;8595;52.542;11.974;2022-09-01T08:30:40;4.05;;;1.10;;
16957;SDS011;8595;52.542;11.974;2022-09-01T08:33:09;1.40;;;0.98;;
16957;SDS011;8595;52.542;11.974;2022-09-01T08:35:38;5.43;;;0.90;;
16957;SDS011;8595;52.542;11.974;2022-09-01T08:38:05;2.78;;;0.90;;
16957;SDS011;8595;52.542;11.974;2022-09-01T08:40:32;1.02;;;0.70;;
16957;SDS011;8595;52.542;11.974;2022-09-01T08:43:01;3.60;;;0.85;;
16957;SDS011;8595;52.542;11.974;2022-09-01T08:45:41;3.85;;;1.13;;
16957;SDS011;8595;52.542;11.974;2022-09-01T08:48:15;2.35;;;0.75;;
16957;SDS011;8595;52.542;11.974;2022-09-01T08:50:46;1.73;;;0.70;;
16957;SDS011;8595;52.542;11.974;2022-09-01T08:53:20;1.55;;;0.80;;
16957;SDS011;8595;52.542;11.974;2022-09-01T08:55:53;3.92;;;0.77;;
16957;SDS011;8595;52.542;11.974;2022-09-01T08:58:21;3.53;;;0.90;;
16957;SDS011;8595;52.542;11.974;2022-09-01T09:00:50;1.88;;;1.20;;
16957;SDS011;8595;52.542;11.974;2022-09-01T09:03:24;2.65;;;0.75;;
16957;SDS011;8595;52.542;11.974;2022-09-01T09:06:01;1.30;;;0.82;;
16957;SDS011;8595;52.542;11.974;2022-09-01T09:08:43;1.13;;;0.80;;
16957;SDS011;8595;52.542;11.974;2022-09-01T09:11:21;4.25;;;1.10;;
16957;SDS011;8595;52.542;11.974;2022-09-01T09:14:13;2.45;;;0.80;;
16957;SDS011;8595;52.542;11.974;2022-09-01T09:16:51;2.45;;;0.82;;
16957;SDS011;8595;52.542;11.974;2022-09-01T09:19:22;0.80;;;0.80;;
16957;SDS011;8595;52.542;11.974;2022-09-01T09:21:53;2.33;;;1.00;;
16957;SDS011;8595;52.542;11.974;2022-09-01T09:24:23;4.22;;;0.70;;
16957;SDS011;8595;52.542;11.974;2022-09-01T09:26:53;1.73;;;0.70;;
16957;SDS011;8595;52.542;11.974;2022-09-01T09:29:22;2.13;;;0.80;;
16957;SDS011;8595;52.542;11.974;2022-09-01T09:31:53;4.68;;;1.10;;
16957;SDS011;8595;52.542;11.974;2022-09-01T09:34:30;0.93;;;0.70;;
16957;SDS011;8595;52.542;11.974;2022-09-01T09:36:59;1.58;;;0.70;;
16957;SDS011;8595;52.542;11.974;2022-09-01T09:39:41;2.95;;;0.70;;
16957;SDS011;8595;52.542;11.974;2022-09-01T09:42:09;1.10;;;0.60;;
16957;SDS011;8595;52.542;11.974;2022-09-01T09:44:39;9.02;;;0.85;;
16957;SDS011;8595;52.542;11.974;2022-09-01T09:47:08;3.47;;;0.57;;
16957;SDS011;8595;52.542;11.974;2022-09-01T09:49:37;0.75;;;0.50;;
16957;SDS011;8595;52.542;11.974;2022-09-01T09:52:14;2.95;;;0.75;;
16957;SDS011;8595;52.542;11.974;2022-09-01T09:54:57;0.57;;;0.47;;
16957;SDS011;8595;52.542;11.974;2022-09-01T09:57:27;1.35;;;0.60;;
16957;SDS011;8595;52.542;11.974;2022-09-01T09:59:56;0.70;;;0.50;;
16957;SDS011;8595;52.542;11.974;2022-09-01T10:02:27;4.90;;;1.00;;
16957;SDS011;8595;52.542;11.974;2022-09-01T10:04:58;0.75;;;0.50;;
16957;SDS011;8595;52.542;11.974;2022-09-01T10:07:28;1.45;;;0.90;;
16957;SDS011;8595;52.542;11.974;2022-09-01T10:09:59;3.92;;;0.57;;
16957;SDS011;8595;52.542;11.974;2022-09-01T10:12:28;1.38;;;0.68;;
16957;SDS011;8595;52.542;11.974;2022-09-01T10:14:56;0.95;;;0.73;;
16957;SDS011;8595;52.542;11.974;2022-09-01T10:17:27;0.82;;;0.50;;
16957;SDS011;8595;52.542;11.974;2022-09-01T10:19:57;2.00;;;0.50;;
16957;SDS011;8595;52.542;11.974;2022-09-01T10:22:31;2.95;;;0.80;;
16957;SDS011;8595;52.542;11.974;2022-09-01T10:25:00;1.75;;;0.60;;
16957;SDS011;8595;52.542;11.974;2022-09-01T10:27:27;0.98;;;0.40;;
16957;SDS011;8595;52.542;11.974;2022-09-01T10:30:08;2.28;;;0.77;;
16957;SDS011;8595;52.542;11.974;2022-09-01T10:32:38;2.08;;;0.75;;
16957;SDS011;8595;52.542;11.974;2022-09-01T10:35:11;4.40;;;0.90;;
16957;SDS011;8595;52.542;11.974;2022-09-01T10:37:48;3.60;;;0.90;;
16957;SDS011;8595;52.542;11.974;2022-09-01T10:40:17;0.98;;;0.60;;
16957;SDS011;8595;52.542;11.974;2022-09-01T10:42:59;4.00;;;0.57;;
16957;SDS011;8595;52.542;11.974;2022-09-01T10:45:54;1.38;;;0.57;;
16957;SDS011;8595;52.542;11.974;2022-09-01T10:48:21;5.38;;;1.00;;
16957;SDS011;8595;52.542;11.974;2022-09-01T10:50:53;1.98;;;0.52;;
16957;SDS011;8595;52.542;11.974;2022-09-01T10:53:40;2.70;;;0.43;;
16957;SDS011;8595;52.542;11.974;2022-09-01T10:56:08;1.48;;;0.98;;
16957;SDS011;8595;52.542;11.974;2022-09-01T10:58:42;1.55;;;0.52;;
16957;SDS011;8595;52.542;11.974;2022-09-01T11:01:15;1.25;;;0.70;;
16957;SDS011;8595;52.542;11.974;2022-09-01T11:06:32;4.72;;;0.68;;
16957;SDS011;8595;52.542;11.974;2022-09-01T11:09:23;3.15;;;0.40;;
16957;SDS011;8595;52.542;11.974;2022-09-01T11:14:54;2.15;;;0.65;;
16957;SDS011;8595;52.542;11.974;2022-09-01T11:17:23;4.38;;;0.88;;
16957;SDS011;8595;52.542;11.974;2022-09-01T11:19:53;7.40;;;0.68;;
16957;SDS011;8595;52.542;11.974;2022-09-01T11:22:25;3.20;;;0.80;;
16957;SDS011;8595;52.542;11.974;2022-09-01T11:25:10;2.80;;;0.60;;
16957;SDS011;8595;52.542;11.974;2022-09-01T11:31:01;2.97;;;0.73;;
16957;SDS011;8595;52.542;11.974;2022-09-01T11:33:45;1.63;;;0.80;;
16957;SDS011;8595;52.542;11.974;2022-09-01T11:36:23;2.92;;;1.00;;
16957;SDS011;8595;52.542;11.974;2022-09-01T11:38:55;5.53;;;1.02;;
16957;SDS011;8595;52.542;11.974;2022-09-01T11:41:30;4.82;;;0.90;;
16957;SDS011;8595;52.542;11.974;2022-09-01T11:44:01;4.18;;;0.95;;
16957;SDS011;8595;52.542;11.974;2022-09-01T11:46:36;3.35;;;0.95;;
16957;SDS011;8595;52.542;11.974;2022-09-01T11:49:22;4.20;;;0.90;;
16957;SDS011;8595;52.542;11.974;2022-09-01T11:51:53;6.85;;;1.05;;
16957;SDS011;8595;52.542;11.974;2022-09-01T11:54:21;6.90;;;1.23;;
16957;SDS011;8595;52.542;11.974;2022-09-01T11:56:49;3.47;;;1.15;;
16957;SDS011;8595;52.542;11.974;2022-09-01T11:59:28;3.15;;;0.90;;
16957;SDS011;8595;52.542;11.974;2022-09-01T12:01:56;2.15;;;0.90;;
16957;SDS011;8595;52.542;11.974;2022-09-01T12:04:24;2.53;;;0.70;;
16957;SDS011;8595;52.542;11.974;2022-09-01T12:06:58;1.48;;;0.60;;
16957;SDS011;8595;52.542;11.974;2022-09-01T12:09:37;1.42;;;0.68;;
16957;SDS011;8595;52.542;11.974;2022-09-01T12:12:24;1.73;;;0.65;;
16957;SDS011;8595;52.542;11.974;2022-09-01T12:14:57;5.10;;;0.70;;
16957;SDS011;8595;52.542;11.974;2022-09-01T12:17:24;0.73;;;0.60;;
16957;SDS011;8595;52.542;11.974;2022-09-01T12:19:51;1.20;;;1.00;;
16957;SDS011;8595;52.542;11.974;2022-09-01T12:22:18;3.22;;;0.50;;
16957;SDS011;8595;52.542;11.974;2022-09-01T12:24:48;3.83;;;0.95;;
16957;SDS011;8595;52.542;11.974;2022-09-01T12:27:16;2.47;;;0.60;;
16957;SDS011;8595;52.542;11.974;2022-09-01T12:29:43;2.40;;;0.70;;
16957;SDS011;8595;52.542;11.974;2022-09-01T12:32:10;2.35;;;0.75;;
16957;SDS011;8595;52.542;11.974;2022-09-01T12:34:41;1.58;;;0.80;;
16957;SDS011;8595;52.542;11.974;2022-09-01T12:37:10;1.75;;;0.63;;
16957;SDS011;8595;52.542;11.974;2022-09-01T12:39:44;1.95;;;0.75;;
16957;SDS011;8595;52.542;11.974;2022-09-01T12:42:23;3.15;;;0.60;;
16957;SDS011;8595;52.542;11.974;2022-09-01T12:44:53;1.65;;;0.95;;
16957;SDS011;8595;52.542;11.974;2022-09-01T12:53:02;0.88;;;0.65;;
16957;SDS011;8595;52.542;11.974;2022-09-01T12:55:53;1.35;;;0.60;;
16957;SDS011;8595;52.542;11.974;2022-09-01T12:58:25;0.93;;;0.70;;
16957;SDS011;8595;52.542;11.974;2022-09-01T13:00:55;1.50;;;0.50;;
16957;SDS011;8595;52.542;11.974;2022-09-01T13:03:24;3.92;;;0.57;;
16957;SDS011;8595;52.542;11.974;2022-09-01T13:05:53;1.42;;;0.80;;
16957;SDS011;8595;52.542;11.974;2022-09-01T13:08:23;3.95;;;0.60;;
16957;SDS011;8595;52.542;11.974;2022-09-01T13:10:53;1.83;;;0.65;;
16957;SDS011;8595;52.542;11.974;2022-09-01T13:13:21;2.85;;;0.40;;
16957;SDS011;8595;52.542;11.974;2022-09-01T13:15:52;0.70;;;0.70;;
16957;SDS011;8595;52.542;11.974;2022-09-01T13:18:20;2.85;;;0.40;;
16957;SDS011;8595;52.542;11.974;2022-09-01T13:20:48;0.98;;;0.50;;
16957;SDS011;8595;52.542;11.974;2022-09-01T13:23:17;3.65;;;0.70;;
16957;SDS011;8595;52.542;11.974;2022-09-01T13:25:44;1.00;;;0.50;;
16957;SDS011;8595;52.542;11.974;2022-09-01T13:28:11;0.45;;;0.45;;
16957;SDS011;8595;52.542;11.974;2022-09-01T13:30:39;2.90;;;0.68;;
16957;SDS011;8595;52.542;11.974;2022-09-01T13:33:09;0.75;;;0.63;;
16957;SDS011;8595;52.542;11.974;2022-09-01T13:35:37;3.78;;;0.45;;
16957;SDS011;8595;52.542;11.974;2022-09-01T13:38:04;4.00;;;0.70;;
16957;SDS011;8595;52.542;11.974;2022-09-01T13:40:30;2.53;;;0.50;;
16957;SDS011;8595;52.542;11.974;2022-09-01T13:42:57;0.82;;;0.60;;
16957;SDS011;8595;52.542;11.974;2022-09-01T13:45:24;0.68;;;0.43;;
16957;SDS011;8595;52.542;11.974;2022-09-01T13:47:51;0.50;;;0.40;;
16957;SDS011;8595;52.542;11.974;2022-09-01T13:50:20;4.07;;;0.60;;
16957;SDS011;8595;52.542;11.974;2022-09-01T13:52:48;0.88;;;0.60;;
16957;SDS011;8595;52.542;11.974;2022-09-01T13:55:18;1.05;;;0.50;;
16957;SDS011;8595;52.542;11.974;2022-09-01T13:57:46;0.85;;;0.70;;
16957;SDS011;8595;52.542;11.974;2022-09-01T14:00:14;0.68;;;0.60;;
16957;SDS011;8595;52.542;11.974;2022-09-01T14:02:43;1.20;;;0.63;;
16957;SDS011;8595;52.542;11.974;2022-09-01T14:05:14;1.15;;;0.45;;
16957;SDS011;8595;52.542;11.974;2022-09-01T14:07:43;2.90;;;0.80;;
16957;SDS011;8595;52.542;11.974;2022-09-01T14:10:10;1.95;;;0.70;;
16957;SDS011;8595;52.542;11.974;2022-09-01T14:12:38;1.35;;;0.57;;
16957;SDS011;8595;52.542;11.974;2022-09-01T14:15:05;1.00;;;0.52;;
16957;SDS011;8595;52.542;11.974;2022-09-01T14:17:33;0.85;;;0.63;;
16957;SDS011;8595;52.542;11.974;2022-09-01T14:20:00;0.55;;;0.50;;
16957;SDS011;8595;52.542;11.974;2022-09-01T14:22:27;2.42;;;0.90;;
16957;SDS011;8595;52.542;11.974;2022-09-01T14:24:55;0.93;;;0.40;;
16957;SDS011;8595;52.542;11.974;2022-09-01T14:27:21;0.50;;;0.30;;
16957;SDS011;8595;52.542;11.974;2022-09-01T14:29:48;0.60;;;0.43;;
16957;SDS011;8595;52.542;11.974;2022-09-01T14:32:16;0.80;;;0.60;;
16957;SDS011;8595;52.542;11.974;2022-09-01T14:34:42;1.25;;;0.50;;
16957;SDS011;8595;52.542;11.974;2022-09-01T14:37:09;1.55;;;0.60;;
16957;SDS011;8595;52.542;11.974;2022-09-01T14:39:36;0.90;;;0.50;;
16957;SDS011;8595;52.542;11.974;2022-09-01T14:42:04;1.95;;;0.75;;
16957;SDS011;8595;52.542;11.974;2022-09-01T14:44:34;0.80;;;0.70;;
16957;SDS011;8595;52.542;11.974;2022-09-01T14:47:01;1.38;;;0.70;;
16957;SDS011;8595;52.542;11.974;2022-09-01T14:49:30;0.80;;;0.80;;
16957;SDS011;8595;52.542;11.974;2022-09-01T14:52:01;3.40;;;1.05;;
16957;SDS011;8595;52.542;11.974;2022-09-01T14:54:30;4.85;;;0.70;;
16957;SDS011;8595;52.542;11.974;2022-09-01T14:56:58;0.93;;;0.70;;
16957;SDS011;8595;52.542;11.974;2022-09-01T14:59:26;1.00;;;0.68;;
16957;SDS011;8595;52.542;11.974;2022-09-01T15:01:53;1.80;;;0.80;;
16957;SDS011;8595;52.542;11.974;2022-09-01T15:04:19;1.23;;;0.80;;
16957;SDS011;8595;52.542;11.974;2022-09-01T15:06:46;0.60;;;0.60;;
16957;SDS011;8595;52.542;11.974;2022-09-01T15:09:13;1.60;;;0.88;;
16957;SDS011;8595;52.542;11.974;2022-09-01T15:11:40;1.10;;;0.70;;
16957;SDS011;8595;52.542;11.974;2022-09-01T15:14:08;0.77;;;0.70;;
16957;SDS011;8595;52.542;11.974;2022-09-01T15:16:36;1.58;;;0.90;;
16957;SDS011;8595;52.542;11.974;2022-09-01T15:19:05;1.40;;;0.85;;